San Lorenzo, CA

9:05 AM PDT on July 30, 2016 (GMT -0700)
Hayward Executive | | Change Station

Elev 46 ft 37.66 °N, 122.12 °W | Updated 11 minutes ago

Mostly Cloudy
Mostly Cloudy
61 °F
Feels Like 61 °F
N
0
Wind Variable Wind from North

Today
High -- | Low -- °F
--% Chance of Precip.
Yesterday
High -- | Low -- °F
Precip. -- in
Pressure 29.86 in
Visibility 9.0 miles
Clouds Mostly Cloudy 800 ft
Dew Point 53 °F
Humidity 75%
Rainfall 0.00 in
Snow Depth Not available.
6:11 AM 8:18 PM
Waning Crescent, 12% visible
METAR KHWD 301554Z 00000KT 9SM BKN008 16/12 A2983 RMK AO2 SLP111 T01610117
Pressure 29.86 in
Visibility 9.0 miles
Clouds Mostly Cloudy 800 ft
Dew Point 53 °F
Humidity 75%
Rainfall 0.00 in
Snow Depth Not available.
6:11 AM 8:18 PM
Waning Crescent, 12% visible
METAR KHWD 301554Z 00000KT 9SM BKN008 16/12 A2983 RMK AO2 SLP111 T01610117

10-Day Weather Forecast

Almanac

Astronomy

Jul. 30, 2016 Rise Set
Actual Time
Civil Twilight
Nautical Twilight
Astronomical Twilight
Moon
Length of Visible Light
Length of Day
Tomorrow will be .
, % of the Moon is Illuminated

Today's Extremes

State Highs State Lows

Community

WunderPhotos

Upload Photos

1,928,592 photos uploaded!

WunderBlog® & News

Nearby

Air Quality

  Air Quality AQ Index Pollutant
Not available.

Snow Depth

Station Depth Elevation

Earthquake Activity

City Distance Mag. Time & Date
Minimum magnitude displayed is 2.5.

Coastal Water Temperatures

Place Temperature

Stations

Nearby Weather Stations

Station Location Temp. Windchill Dew Point Humidity Wind Precip. Elev Updated Type
                   

Watches & Warnings

There are currently no watches in effect.